Time;durP1;ratioP1;P1;durP2;ratioP2;P2;SDS_P1;SDS_P2;PMS_P1;PMS_P2;Temp;Humidity;BMP_temperature;BMP_pressure;BME280_temperature;BME280_humidity;BME280_pressure;Samples;Min_cycle;Max_cycle;Signal;HPM_P1;HPM_P2
2022/05/16 00:02:05;;;;;;;10.23;3.58;;;7.90;99.90;;;;;;5075272;23;20041;-70
2022/05/16 00:04:31;;;;;;;9.05;3.33;;;7.90;99.90;;;;;;5036081;28;20017;-70
2022/05/16 00:06:57;;;;;;;8.77;3.30;;;7.80;99.90;;;;;;5036107;28;20021;-70
2022/05/16 00:09:23;;;;;;;8.07;3.33;;;7.90;99.90;;;;;;5035087;28;20022;-70
2022/05/16 00:11:48;;;;;;;7.95;3.20;;;7.90;99.90;;;;;;5035719;28;20053;-70
2022/05/16 00:14:14;;;;;;;11.40;3.45;;;7.90;99.90;;;;;;5035305;28;20495;-70
2022/05/16 00:16:40;;;;;;;7.40;2.88;;;7.90;99.90;;;;;;5035829;28;20033;-70
2022/05/16 00:19:05;;;;;;;11.77;3.30;;;7.90;99.90;;;;;;5035876;28;20496;-70
2022/05/16 00:21:32;;;;;;;6.50;3.20;;;8.00;99.90;;;;;;5035539;28;20424;-70
2022/05/16 00:23:57;;;;;;;6.28;2.83;;;7.90;99.90;;;;;;5035040;28;20030;-70
2022/05/16 00:26:23;;;;;;;9.50;3.17;;;8.00;99.90;;;;;;5034838;28;20096;-70
2022/05/16 00:28:48;;;;;;;8.25;2.85;;;8.00;99.90;;;;;;5035444;28;20389;-70
2022/05/16 00:31:14;;;;;;;5.72;2.80;;;8.00;99.90;;;;;;5035424;28;20369;-70
2022/05/16 00:33:41;;;;;;;6.47;2.65;;;8.00;99.90;;;;;;5034901;28;20025;-70
2022/05/16 00:36:06;;;;;;;8.80;3.28;;;8.00;99.90;;;;;;5035101;28;20018;-70
2022/05/16 00:38:32;;;;;;;7.78;2.97;;;8.10;99.90;;;;;;5035750;28;20032;-70
2022/05/16 00:41:00;;;;;;;9.32;2.92;;;8.10;99.90;;;;;;5020142;28;20490;-70
2022/05/16 00:43:47;;;;;;;8.27;2.75;;;8.10;99.90;;;;;;5034014;28;20032;-70
2022/05/16 00:46:14;;;;;;;6.90;3.00;;;8.20;99.90;;;;;;5035165;28;20056;-70
2022/05/16 00:48:40;;;;;;;9.52;4.20;;;8.20;99.90;;;;;;5035472;28;20029;-70
2022/05/16 00:51:11;;;;;;;7.93;3.55;;;8.20;99.90;;;;;;5034685;28;20032;-70
2022/05/16 00:53:37;;;;;;;8.10;3.10;;;8.20;99.90;;;;;;5034376;28;20033;-70
2022/05/16 00:56:03;;;;;;;7.30;2.83;;;8.20;99.90;;;;;;5035027;28;20026;-70
2022/05/16 00:58:28;;;;;;;6.55;2.60;;;8.10;99.90;;;;;;5033954;28;20018;-70
2022/05/16 01:00:54;;;;;;;5.70;2.35;;;8.10;99.90;;;;;;5033930;28;20496;-70
2022/05/16 01:06:07;;;;;;;5.65;2.90;;;8.00;99.90;;;;;;5035101;28;20032;-70
2022/05/16 01:08:35;;;;;;;8.70;2.90;;;7.90;99.90;;;;;;5034852;28;20128;-70
2022/05/16 01:11:09;;;;;;;5.00;2.67;;;7.80;99.90;;;;;;5033482;28;20083;-70
2022/05/16 01:13:34;;;;;;;9.27;3.05;;;7.70;99.90;;;;;;5034792;28;20054;-70
2022/05/16 01:16:02;;;;;;;7.13;3.20;;;7.70;99.90;;;;;;5034545;28;20026;-70
2022/05/16 01:18:28;;;;;;;6.63;2.80;;;7.60;99.90;;;;;;5034957;28;20389;-70
2022/05/16 01:21:12;;;;;;;4.47;2.90;;;7.60;99.90;;;;;;5034068;28;20028;-70
2022/05/16 01:23:47;;;;;;;10.18;3.35;;;7.50;99.90;;;;;;5034503;28;20018;-70
2022/05/16 01:26:19;;;;;;;9.77;3.47;;;7.50;99.90;;;;;;5034751;28;20038;-70
2022/05/16 01:28:45;;;;;;;10.48;3.03;;;7.50;99.90;;;;;;5036247;28;20025;-70
2022/05/16 01:31:11;;;;;;;6.03;2.65;;;7.50;99.90;;;;;;5033217;28;20048;-70
2022/05/16 01:33:37;;;;;;;8.32;3.30;;;7.60;99.90;;;;;;5014571;28;20032;-70
2022/05/16 01:36:03;;;;;;;11.13;3.03;;;7.60;99.90;;;;;;5014456;28;20049;-70
2022/05/16 01:38:30;;;;;;;10.60;3.47;;;7.60;99.90;;;;;;5015307;28;20042;-70
2022/05/16 01:41:02;;;;;;;16.80;3.00;;;7.70;99.90;;;;;;5034209;28;20359;-70
2022/05/16 01:43:49;;;;;;;5.30;2.83;;;7.70;99.90;;;;;;5033651;28;20040;-70
2022/05/16 01:46:22;;;;;;;8.50;3.47;;;7.80;99.90;;;;;;5034572;28;20381;-70
2022/05/16 01:48:48;;;;;;;8.18;2.78;;;7.80;99.90;;;;;;5034376;28;20017;-70
2022/05/16 01:51:14;;;;;;;8.23;2.97;;;7.90;99.90;;;;;;5033952;28;20029;-70
2022/05/16 01:53:41;;;;;;;8.30;2.72;;;8.00;99.90;;;;;;5032867;28;20025;-70
2022/05/16 01:56:07;;;;;;;6.65;2.90;;;8.00;99.90;;;;;;5034223;28;20139;-70
2022/05/16 01:58:33;;;;;;;5.28;2.90;;;8.10;99.90;;;;;;5034165;28;20104;-70
2022/05/16 02:00:58;;;;;;;6.15;2.78;;;8.20;99.90;;;;;;5033873;28;20072;-70
2022/05/16 02:03:24;;;;;;;8.45;3.45;;;8.30;99.90;;;;;;5033939;28;20017;-70
2022/05/16 02:05:50;;;;;;;7.35;2.90;;;8.40;99.90;;;;;;5031364;28;20112;-70
2022/05/16 02:08:16;;;;;;;11.00;2.85;;;8.40;99.90;;;;;;5033053;28;20493;-70
2022/05/16 02:10:42;;;;;;;8.40;3.10;;;8.50;99.90;;;;;;5033706;28;20064;-70
2022/05/16 02:13:09;;;;;;;4.68;2.90;;;8.60;99.90;;;;;;5033905;28;20030;-70
2022/05/16 02:15:36;;;;;;;8.68;3.60;;;8.70;99.90;;;;;;5033735;28;20040;-70
2022/05/16 02:18:04;;;;;;;8.75;3.08;;;8.70;99.90;;;;;;5033443;28;20116;-71
2022/05/16 02:20:30;;;;;;;18.00;4.47;;;8.80;99.90;;;;;;5032758;28;20546;-71
2022/05/16 02:25:44;;;;;;;12.95;3.90;;;8.90;99.90;;;;;;5033782;28;20083;-71
2022/05/16 02:28:14;;;;;;;10.52;4.20;;;8.90;99.90;;;;;;5033165;28;20034;-71
2022/05/16 02:30:41;;;;;;;6.57;3.90;;;8.90;99.90;;;;;;5033316;28;20017;-71
2022/05/16 02:33:07;;;;;;;9.93;3.60;;;9.00;99.90;;;;;;5033678;28;20022;-71
2022/05/16 02:35:33;;;;;;;11.50;4.05;;;9.00;99.90;;;;;;5032059;28;20076;-71
2022/05/16 02:37:59;;;;;;;13.48;4.90;;;9.00;99.90;;;;;;5033508;28;20421;-71
2022/05/16 02:40:26;;;;;;;10.80;4.38;;;9.00;99.90;;;;;;5033395;28;20017;-71
2022/05/16 02:42:52;;;;;;;14.18;4.22;;;9.10;99.90;;;;;;5033180;28;20033;-71
2022/05/16 02:45:19;;;;;;;16.52;4.07;;;9.10;99.90;;;;;;5032669;28;20068;-70
2022/05/16 02:47:44;;;;;;;11.07;3.72;;;9.10;99.90;;;;;;5033386;28;20076;-70
2022/05/16 02:50:10;;;;;;;7.20;3.78;;;9.10;99.90;;;;;;5033857;28;20493;-70
2022/05/16 02:52:36;;;;;;;12.30;4.15;;;9.10;99.90;;;;;;5033560;28;20168;-70
2022/05/16 02:55:02;;;;;;;9.95;3.65;;;9.10;99.90;;;;;;5019023;28;20033;-71
2022/05/16 02:57:29;;;;;;;7.15;3.92;;;9.10;99.90;;;;;;5018977;28;20412;-70
2022/05/16 02:59:55;;;;;;;10.52;4.15;;;9.10;99.90;;;;;;5018980;28;20041;-71
2022/05/16 03:02:21;;;;;;;14.02;4.57;;;9.20;99.90;;;;;;5031847;28;20065;-71
2022/05/16 03:04:47;;;;;;;9.93;3.65;;;9.20;99.90;;;;;;5032637;28;20036;-71
2022/05/16 03:07:12;;;;;;;15.30;3.92;;;9.20;99.90;;;;;;5033663;28;20029;-71
2022/05/16 03:09:38;;;;;;;11.13;4.68;;;9.20;99.90;;;;;;5033269;28;20475;-71
2022/05/16 03:12:04;;;;;;;9.50;4.22;;;9.20;99.90;;;;;;5033098;28;20030;-71
2022/05/16 03:14:30;;;;;;;17.35;5.63;;;9.20;99.90;;;;;;5033104;28;20097;-71
2022/05/16 03:16:56;;;;;;;17.77;5.35;;;9.20;99.90;;;;;;5031651;28;20125;-71
2022/05/16 03:19:22;;;;;;;13.02;5.18;;;9.20;99.90;;;;;;5036928;28;20032;-71
2022/05/16 03:21:48;;;;;;;13.23;5.35;;;9.30;99.90;;;;;;5036633;28;20030;-71
2022/05/16 03:24:13;;;;;;;13.73;4.70;;;9.30;99.90;;;;;;5036626;28;20018;-71
2022/05/16 03:26:39;;;;;;;14.32;6.22;;;9.30;99.90;;;;;;5035910;28;20405;-70
2022/05/16 03:29:06;;;;;;;15.32;6.00;;;9.30;99.90;;;;;;5036571;28;20060;-70
2022/05/16 03:31:33;;;;;;;12.30;4.15;;;9.30;99.90;;;;;;5036507;28;20033;-70
2022/05/16 03:33:59;;;;;;;13.60;5.35;;;9.30;99.90;;;;;;5036771;28;20080;-70
2022/05/16 03:36:24;;;;;;;23.77;6.97;;;9.30;99.90;;;;;;5035123;28;20029;-70
2022/05/16 03:41:35;;;;;;;12.63;4.38;;;9.40;99.90;;;;;;5036632;28;20036;-70
2022/05/16 03:44:00;;;;;;;9.63;4.75;;;9.40;99.90;;;;;;5036377;28;20026;-70
2022/05/16 03:46:26;;;;;;;17.25;4.88;;;9.40;99.90;;;;;;5035542;28;20028;-70
2022/05/16 03:48:52;;;;;;;14.45;5.10;;;9.40;99.90;;;;;;5036499;28;20032;-70
2022/05/16 03:51:18;;;;;;;10.05;4.50;;;9.40;99.90;;;;;;5037766;28;20117;-70
2022/05/16 03:53:46;;;;;;;12.25;6.03;;;9.30;99.90;;;;;;5037824;28;20531;-70
2022/05/16 03:56:21;;;;;;;17.60;6.07;;;9.30;99.90;;;;;;5035243;28;20056;-71
2022/05/16 03:58:46;;;;;;;14.10;5.32;;;9.30;99.90;;;;;;5036171;28;20059;-71
2022/05/16 04:01:13;;;;;;;10.38;4.75;;;9.30;99.90;;;;;;5035988;28;20037;-71
2022/05/16 04:03:39;;;;;;;14.82;5.22;;;9.40;99.90;;;;;;5036172;28;20508;-70
2022/05/16 04:06:06;;;;;;;9.38;5.00;;;9.40;99.90;;;;;;5035312;28;20021;-70
2022/05/16 04:08:32;;;;;;;13.20;4.90;;;9.40;99.90;;;;;;5036034;28;20075;-70
2022/05/16 04:10:59;;;;;;;10.32;5.20;;;9.40;99.90;;;;;;5035888;28;20068;-70
2022/05/16 04:13:26;;;;;;;13.75;6.55;;;9.50;99.90;;;;;;5035819;28;20029;-70
2022/05/16 04:15:52;;;;;;;12.57;5.30;;;9.50;99.90;;;;;;5034368;28;20030;-70
2022/05/16 04:18:18;;;;;;;14.80;5.75;;;9.50;99.90;;;;;;5035766;28;20025;-70
2022/05/16 04:20:43;;;;;;;17.05;6.13;;;9.60;99.90;;;;;;5035563;28;20029;-70
2022/05/16 04:23:09;;;;;;;20.70;7.20;;;9.70;99.90;;;;;;5035640;28;20025;-70
2022/05/16 04:25:37;;;;;;;19.63;7.38;;;9.70;99.90;;;;;;5033953;28;20057;-70
2022/05/16 04:28:04;;;;;;;12.30;5.60;;;9.80;99.90;;;;;;5015487;28;20425;-70
2022/05/16 04:30:29;;;;;;;19.40;6.78;;;9.90;99.90;;;;;;5015315;28;20022;-71
2022/05/16 04:32:55;;;;;;;12.25;6.18;;;10.00;99.90;;;;;;5015652;28;20512;-70
2022/05/16 04:35:21;;;;;;;10.85;5.53;;;10.00;99.90;;;;;;5019144;28;20021;-70
2022/05/16 04:37:46;;;;;;;16.67;6.20;;;10.10;99.90;;;;;;5035405;28;20025;-70
2022/05/16 04:40:14;;;;;;;16.40;6.75;;;10.20;99.90;;;;;;5031536;28;20096;-70
2022/05/16 04:42:43;;;;;;;9.02;5.45;;;10.20;99.90;;;;;;5033864;28;20025;-70
2022/05/16 04:45:30;;;;;;;12.68;5.40;;;10.40;99.90;;;;;;5034531;28;20021;-70
2022/05/16 04:48:00;;;;;;;19.67;6.28;;;10.40;99.90;;;;;;5035773;28;20053;-70
2022/05/16 04:50:32;;;;;;;11.48;5.38;;;10.50;99.90;;;;;;5035241;28;20448;-70
2022/05/16 04:52:59;;;;;;;16.35;6.40;;;10.60;99.90;;;;;;5035239;28;20052;-70
2022/05/16 04:55:26;;;;;;;14.02;6.80;;;10.70;99.90;;;;;;5035384;28;20029;-70
2022/05/16 04:57:52;;;;;;;22.25;7.75;;;10.80;99.90;;;;;;5034962;28;20025;-70
2022/05/16 05:00:19;;;;;;;14.02;5.85;;;10.90;99.90;;;;;;5034665;28;20430;-70
2022/05/16 05:02:45;;;;;;;12.65;6.15;;;11.10;99.90;;;;;;5021863;28;20101;-70
2022/05/16 05:05:12;;;;;;;17.95;6.68;;;11.30;99.90;;;;;;5015300;28;20061;-70
2022/05/16 05:07:38;;;;;;;16.58;6.28;;;11.40;99.90;;;;;;5015043;28;20026;-70
2022/05/16 05:15:38;;;;;;;16.75;5.15;;;11.80;99.90;;;;;;5034858;28;20064;-70
2022/05/16 05:18:04;;;;;;;22.77;5.80;;;12.00;99.90;;;;;;5033768;28;20484;-70
2022/05/16 05:20:32;;;;;;;17.17;5.25;;;12.00;99.90;;;;;;5031833;28;20573;-70
2022/05/16 05:22:59;;;;;;;14.90;4.82;;;12.10;99.90;;;;;;5034521;28;20026;-70
2022/05/16 05:25:24;;;;;;;12.98;4.88;;;12.20;99.90;;;;;;5034552;28;20025;-70
2022/05/16 05:27:50;;;;;;;14.55;4.45;;;12.30;99.90;;;;;;5034416;28;20134;-70
2022/05/16 05:30:22;;;;;;;20.90;5.50;;;12.40;99.90;;;;;;5033720;28;20469;-70
2022/05/16 05:32:47;;;;;;;15.38;4.55;;;12.50;99.90;;;;;;5034537;28;20393;-70
2022/05/16 05:35:14;;;;;;;25.52;4.65;;;12.50;99.90;;;;;;5034114;28;20025;-70
2022/05/16 05:37:40;;;;;;;12.88;4.63;;;12.60;99.90;;;;;;5034368;28;20025;-70
2022/05/16 05:40:07;;;;;;;19.85;4.90;;;12.70;99.90;;;;;;5033174;28;20036;-70
2022/05/16 05:42:34;;;;;;;15.85;5.30;;;12.80;99.90;;;;;;5033111;28;20033;-70
2022/05/16 05:45:00;;;;;;;17.80;4.60;;;12.90;99.90;;;;;;5034065;28;20026;-70
2022/05/16 05:47:27;;;;;;;17.33;5.30;;;12.90;99.90;;;;;;5033984;28;20505;-70
2022/05/16 05:49:53;;;;;;;13.25;4.28;;;13.00;99.90;;;;;;5031984;28;20033;-70
2022/05/16 05:52:19;;;;;;;14.15;5.05;;;13.10;99.90;;;;;;5033074;28;20104;-70
2022/05/16 05:54:46;;;;;;;17.90;5.10;;;13.10;99.90;;;;;;5033872;28;20028;-70
2022/05/16 05:57:13;;;;;;;13.20;3.90;;;13.10;99.90;;;;;;5033898;28;20029;-70
2022/05/16 05:59:38;;;;;;;15.38;4.60;;;13.30;99.90;;;;;;5034153;28;20021;-70
2022/05/16 06:02:06;;;;;;;15.30;4.63;;;13.40;99.90;;;;;;5034177;28;20040;-71
2022/05/16 06:04:31;;;;;;;24.67;4.72;;;13.50;99.90;;;;;;5034089;28;20029;-71
2022/05/16 06:06:57;;;;;;;14.18;4.22;;;13.60;99.90;;;;;;5032377;28;20108;-71
2022/05/16 06:09:23;;;;;;;12.45;4.45;;;13.80;99.90;;;;;;5033710;28;20032;-71
2022/05/16 06:11:49;;;;;;;11.55;3.92;;;14.00;99.90;;;;;;5033337;28;20060;-71
2022/05/16 06:14:15;;;;;;;12.30;4.40;;;14.10;99.90;;;;;;5033807;28;20469;-71
2022/05/16 06:16:41;;;;;;;20.42;5.00;;;14.40;99.90;;;;;;5034518;28;20371;-70
2022/05/16 06:19:08;;;;;;;11.75;3.97;;;14.60;99.90;;;;;;5035173;28;20028;-71
2022/05/16 06:21:34;;;;;;;14.57;4.00;;;14.90;99.90;;;;;;5033683;28;20054;-71
2022/05/16 06:24:00;;;;;;;10.20;3.83;;;15.10;99.90;;;;;;5031736;28;20021;-71
2022/05/16 06:26:25;;;;;;;14.00;4.07;;;15.30;99.90;;;;;;5035775;28;20033;-72
2022/05/16 06:28:51;;;;;;;13.77;3.78;;;15.40;99.90;;;;;;5035486;28;20025;-73
2022/05/16 06:31:16;;;;;;;11.50;3.80;;;15.50;99.90;;;;;;5032937;28;20378;-72
2022/05/16 06:33:46;;;;;;;14.75;4.28;;;15.50;99.90;;;;;;5033650;28;20518;-72
2022/05/16 06:36:12;;;;;;;16.48;4.90;;;15.50;99.90;;;;;;5033593;28;20014;-72
2022/05/16 06:38:38;;;;;;;8.27;3.88;;;15.50;99.90;;;;;;5032720;28;20497;-72
2022/05/16 06:41:04;;;;;;;12.73;3.95;;;15.50;99.90;;;;;;5034527;28;20477;-72
2022/05/16 06:43:30;;;;;;;12.05;3.22;;;15.60;99.90;;;;;;5034901;28;20032;-72
2022/05/16 06:45:56;;;;;;;9.80;3.30;;;15.70;99.90;;;;;;5033442;28;20029;-72
2022/05/16 06:48:22;;;;;;;13.63;3.65;;;15.70;99.90;;;;;;5035327;28;20021;-73
2022/05/16 06:50:50;;;;;;;16.70;3.50;;;15.90;99.90;;;;;;5034937;28;20052;-73
2022/05/16 06:53:19;;;;;;;10.93;2.90;;;16.10;99.90;;;;;;5036974;28;20030;-73
2022/05/16 06:55:45;;;;;;;16.15;3.17;;;16.30;99.90;;;;;;5030955;28;20037;-73
2022/05/16 06:58:10;;;;;;;8.43;2.95;;;16.50;99.90;;;;;;5018853;28;20030;-73
2022/05/16 07:00:36;;;;;;;6.15;2.38;;;16.60;99.90;;;;;;5019336;28;20029;-72
2022/05/16 07:03:03;;;;;;;14.10;2.95;;;16.70;99.90;;;;;;5019777;28;20022;-72
2022/05/16 07:05:28;;;;;;;7.45;2.90;;;16.60;99.90;;;;;;5018533;28;20030;-73
2022/05/16 07:07:55;;;;;;;14.88;3.40;;;16.70;99.90;;;;;;5018105;28;20029;-73
2022/05/16 07:10:21;;;;;;;9.63;2.97;;;16.70;99.90;;;;;;5019772;28;20021;-72
2022/05/16 07:12:47;;;;;;;10.55;2.65;;;16.70;99.90;;;;;;5020921;28;20026;-73
2022/05/16 07:15:13;;;;;;;9.70;2.53;;;17.00;99.90;;;;;;5021897;28;20045;-73
2022/05/16 07:17:39;;;;;;;8.40;2.78;;;17.20;99.90;;;;;;5018853;28;20026;-73
2022/05/16 07:20:05;;;;;;;13.05;2.67;;;17.40;99.90;;;;;;5021304;28;20462;-73
2022/05/16 07:22:31;;;;;;;8.70;2.97;;;17.50;99.90;;;;;;5020161;28;20073;-73
2022/05/16 07:24:58;;;;;;;15.75;3.65;;;17.70;99.90;;;;;;5036870;28;20018;-73
2022/05/16 07:30:10;;;;;;;8.48;2.30;;;18.00;99.90;;;;;;5019861;28;20053;-73
2022/05/16 07:32:41;;;;;;;7.38;2.58;;;18.00;99.90;;;;;;5019044;28;20014;-73
2022/05/16 07:35:12;;;;;;;15.35;3.30;;;17.90;99.90;;;;;;5034609;28;20393;-73
2022/05/16 07:37:38;;;;;;;9.90;2.00;;;17.80;99.90;;;;;;5019717;28;20426;-73
2022/05/16 07:40:07;;;;;;;7.32;2.47;;;17.70;99.90;;;;;;5034185;28;20060;-73
2022/05/16 07:42:33;;;;;;;11.75;2.40;;;17.90;99.90;;;;;;5017884;28;20041;-73
2022/05/16 07:45:00;;;;;;;9.88;2.55;;;18.10;99.90;;;;;;5019341;28;20381;-73
2022/05/16 07:47:27;;;;;;;8.32;2.40;;;18.50;99.90;;;;;;5018977;28;20492;-73
2022/05/16 07:49:52;;;;;;;7.50;2.47;;;18.70;99.90;;;;;;5034274;28;20029;-73
2022/05/16 07:52:18;;;;;;;6.65;2.22;;;19.10;99.90;;;;;;5018933;28;20045;-73
2022/05/16 07:54:44;;;;;;;7.80;2.55;;;19.00;99.90;;;;;;5019532;28;20121;-72
2022/05/16 07:57:09;;;;;;;5.78;2.10;;;19.00;99.90;;;;;;5019087;28;20030;-73
2022/05/16 07:59:35;;;;;;;7.80;2.30;;;19.00;99.90;;;;;;5018919;28;20022;-73
2022/05/16 08:02:01;;;;;;;12.40;2.78;;;19.00;99.90;;;;;;5017639;28;20048;-73
2022/05/16 08:04:26;;;;;;;9.02;2.70;;;19.30;99.90;;;;;;5019158;28;20559;-72
2022/05/16 08:06:52;;;;;;;8.77;2.67;;;19.50;99.90;;;;;;5018965;28;20033;-72
2022/05/16 08:12:02;;;;;;;9.70;2.25;;;20.10;99.90;;;;;;5019649;28;20084;-73
2022/05/16 08:14:29;;;;;;;6.47;2.45;;;20.00;99.90;;;;;;5018684;28;20492;-73
2022/05/16 08:16:55;;;;;;;9.27;1.92;;;20.10;99.90;;;;;;5018473;28;20466;-73
2022/05/16 08:19:20;;;;;;;10.50;2.10;;;20.20;99.90;;;;;;5018939;28;20030;-73
2022/05/16 08:21:48;;;;;;;5.47;2.10;;;20.30;99.90;;;;;;5019719;28;20025;-73
2022/05/16 08:24:14;;;;;;;7.93;2.08;;;20.30;99.90;;;;;;5017297;28;20062;-73
2022/05/16 08:26:40;;;;;;;9.27;2.38;;;20.30;99.90;;;;;;5032781;28;20030;-72
2022/05/16 08:29:05;;;;;;;8.10;2.38;;;20.30;99.90;;;;;;5032457;28;20026;-72
2022/05/16 08:31:31;;;;;;;10.13;2.38;;;20.50;99.90;;;;;;5019000;28;20064;-72
2022/05/16 08:33:58;;;;;;;5.70;2.38;;;20.60;99.90;;;;;;5017574;28;20041;-72
2022/05/16 08:42:02;;;;;;;8.35;2.35;;;20.90;99.90;;;;;;5018581;28;20437;-72
2022/05/16 08:44:41;;;;;;;14.15;2.83;;;21.10;99.90;;;;;;5019662;28;20026;-73
2022/05/16 08:47:16;;;;;;;9.55;2.33;;;20.80;99.90;;;;;;5019083;28;20046;-73
2022/05/16 08:49:53;;;;;;;9.57;2.40;;;20.50;99.90;;;;;;5017252;28;20029;-73
2022/05/16 08:52:27;;;;;;;10.85;2.90;;;20.40;99.90;;;;;;5017248;28;20057;-73
2022/05/16 08:55:22;;;;;;;10.48;2.53;;;20.30;99.90;;;;;;5019103;28;20037;-72
2022/05/16 08:57:55;;;;;;;6.72;1.92;;;20.30;99.90;;;;;;5017842;28;20021;-73
2022/05/16 09:00:25;;;;;;;8.97;2.53;;;20.40;99.90;;;;;;5017465;28;20037;-73
2022/05/16 09:02:52;;;;;;;5.97;1.90;;;20.40;99.90;;;;;;5019336;28;20022;-73
2022/05/16 09:05:33;;;;;;;11.55;2.78;;;20.40;99.90;;;;;;5020103;28;20034;-72
2022/05/16 09:08:00;;;;;;;10.60;2.70;;;20.70;99.90;;;;;;5018889;28;20064;-72
2022/05/16 09:10:39;;;;;;;7.68;2.33;;;20.50;99.90;;;;;;5019424;28;20474;-73
2022/05/16 09:13:15;;;;;;;10.07;3.22;;;20.50;99.90;;;;;;5017750;28;20037;-73
2022/05/16 09:15:43;;;;;;;9.90;2.63;;;20.60;99.90;;;;;;5015446;28;20033;-72
2022/05/16 09:18:27;;;;;;;6.18;2.38;;;20.90;99.90;;;;;;5015242;28;20359;-72
2022/05/16 09:21:00;;;;;;;9.00;2.42;;;21.00;99.90;;;;;;5017044;28;20021;-72
2022/05/16 09:23:35;;;;;;;15.45;2.72;;;21.20;99.90;;;;;;5017105;28;20014;-73
2022/05/16 09:26:06;;;;;;;6.57;2.42;;;21.40;99.90;;;;;;5020300;28;20033;-73
2022/05/16 09:28:39;;;;;;;9.55;2.15;;;21.20;99.90;;;;;;5019369;28;20030;-73
2022/05/16 09:31:30;;;;;;;8.37;2.20;;;21.10;99.90;;;;;;5019973;28;20038;-73
2022/05/16 09:33:58;;;;;;;8.35;2.75;;;21.20;99.90;;;;;;5035016;28;20536;-73
2022/05/16 09:36:31;;;;;;;6.72;3.03;;;21.40;99.90;;;;;;5019670;28;20034;-73
2022/05/16 09:38:56;;;;;;;8.65;2.47;;;21.70;99.90;;;;;;5014709;28;20028;-72
2022/05/16 09:41:24;;;;;;;11.43;3.70;;;21.70;99.90;;;;;;5014239;28;20117;-72
2022/05/16 09:44:06;;;;;;;8.57;2.33;;;21.80;99.90;;;;;;5014420;28;20056;-72
2022/05/16 09:46:37;;;;;;;7.60;2.33;;;21.80;99.90;;;;;;5014445;28;20394;-71
2022/05/16 09:49:04;;;;;;;7.53;2.45;;;21.90;99.90;;;;;;5014587;28;20108;-71
2022/05/16 09:51:37;;;;;;;8.07;2.90;;;21.60;99.90;;;;;;5012992;28;20022;-71
2022/05/16 09:54:21;;;;;;;7.13;2.60;;;21.60;99.90;;;;;;5014453;28;20033;-72
2022/05/16 09:57:15;;;;;;;9.85;3.03;;;21.80;99.90;;;;;;5014706;28;20029;-72
2022/05/16 09:59:51;;;;;;;12.25;2.72;;;22.00;99.90;;;;;;5014373;28;20026;-72
2022/05/16 10:02:27;;;;;;;15.27;2.78;;;22.20;99.90;;;;;;5013980;28;20030;-71
2022/05/16 10:04:59;;;;;;;7.88;2.65;;;22.40;99.90;;;;;;5014395;28;20033;-71
2022/05/16 10:07:50;;;;;;;11.57;2.28;;;22.50;99.90;;;;;;5014143;28;20080;-72
2022/05/16 10:10:24;;;;;;;12.63;3.30;;;22.80;99.90;;;;;;5013940;28;20388;-71
2022/05/16 10:12:52;;;;;;;9.32;2.40;;;22.70;99.90;;;;;;5019545;28;20022;-71
2022/05/16 10:15:17;;;;;;;8.75;2.95;;;22.80;99.90;;;;;;5014138;28;20421;-71
2022/05/16 10:17:45;;;;;;;7.13;2.38;;;22.70;99.90;;;;;;5014348;28;20037;-71
2022/05/16 10:20:16;;;;;;;11.15;2.75;;;22.60;99.90;;;;;;5013845;28;20026;-71
2022/05/16 10:22:42;;;;;;;10.55;2.83;;;22.80;99.90;;;;;;5013973;28;20133;-71
2022/05/16 10:25:11;;;;;;;12.13;2.85;;;23.00;99.90;;;;;;5015861;28;20025;-71
2022/05/16 10:27:38;;;;;;;15.15;2.70;;;23.20;99.90;;;;;;5015970;28;20030;-71
2022/05/16 10:30:09;;;;;;;8.73;2.22;;;23.30;99.90;;;;;;5027193;28;20026;-72
2022/05/16 10:35:32;;;;;;;12.75;2.22;;;23.50;99.90;;;;;;5024971;28;20029;-71
2022/05/16 10:38:02;;;;;;;10.10;2.67;;;23.70;99.90;;;;;;5018069;28;20018;-71
2022/05/16 10:40:41;;;;;;;11.82;3.35;;;23.70;99.90;;;;;;5018115;28;20076;-71
2022/05/16 10:43:35;;;;;;;11.13;3.00;;;23.90;99.90;;;;;;5017962;28;20105;-71
2022/05/16 10:46:12;;;;;;;8.13;2.38;;;24.00;99.90;;;;;;5018020;28;20079;-71
2022/05/16 10:48:45;;;;;;;7.15;2.33;;;24.10;99.90;;;;;;5017828;28;20026;-71
2022/05/16 10:51:16;;;;;;;7.65;2.20;;;24.30;99.90;;;;;;5017644;28;20033;-71
2022/05/16 10:54:01;;;;;;;5.60;2.15;;;24.40;99.90;;;;;;5017865;28;20482;-71
2022/05/16 10:56:41;;;;;;;10.52;2.40;;;24.40;99.90;;;;;;5017426;28;20022;-71
2022/05/16 10:59:18;;;;;;;9.40;2.55;;;24.60;99.90;;;;;;5017833;28;20092;-71
2022/05/16 11:02:04;;;;;;;9.70;2.67;;;24.80;99.90;;;;;;5017355;28;20065;-71
2022/05/16 11:04:48;;;;;;;14.15;2.70;;;24.90;99.90;;;;;;5019344;28;20018;-71
2022/05/16 11:07:41;;;;;;;7.28;2.40;;;24.80;99.90;;;;;;5019293;28;20489;-71
2022/05/16 11:10:38;;;;;;;7.43;2.70;;;24.70;99.90;;;;;;5017533;28;20032;-71
2022/05/16 11:13:16;;;;;;;14.15;2.10;;;24.50;99.90;;;;;;5017415;28;20075;-71
2022/05/16 11:15:55;;;;;;;9.95;2.47;;;24.50;99.90;;;;;;5017348;28;20041;-71
2022/05/16 11:18:34;;;;;;;10.02;3.28;;;24.60;99.90;;;;;;5017023;28;20026;-71
2022/05/16 11:21:24;;;;;;;6.55;2.40;;;24.60;99.90;;;;;;5016953;28;20028;-71
2022/05/16 11:24:01;;;;;;;8.40;2.35;;;24.70;99.90;;;;;;5017507;28;20413;-71
2022/05/16 11:26:53;;;;;;;8.98;2.78;;;25.20;99.90;;;;;;5015732;28;20033;-71
2022/05/16 11:29:52;;;;;;;7.97;2.33;;;25.60;99.90;;;;;;5017450;28;20025;-71
2022/05/16 11:32:37;;;;;;;11.65;2.45;;;25.80;99.90;;;;;;5016850;28;20084;-71
2022/05/16 11:35:13;;;;;;;12.27;3.00;;;25.90;99.90;;;;;;5016875;28;20053;-71
2022/05/16 11:37:48;;;;;;;13.82;3.28;;;26.00;99.90;;;;;;5016815;28;20014;-71
2022/05/16 11:40:31;;;;;;;7.90;2.58;;;26.10;99.90;;;;;;5016960;28;20030;-70
2022/05/16 11:43:14;;;;;;;;;;;25.40;99.90;;;;;;5017332;28;20033;-71
2022/05/16 11:46:18;;;;;;;9.55;2.95;;;25.30;99.90;;;;;;5016831;28;19905;-71
2022/05/16 11:48:56;;;;;;;10.52;2.97;;;25.40;99.90;;;;;;5016708;28;20037;-71
2022/05/16 11:52:05;;;;;;;8.65;3.30;;;25.50;99.90;;;;;;5016472;28;20034;-71
2022/05/16 11:54:49;;;;;;;10.23;2.63;;;25.50;99.90;;;;;;5016785;28;20470;-71
2022/05/16 12:02:58;;;;;;;9.55;2.80;;;26.00;99.90;;;;;;5017112;28;20061;-71
2022/05/16 12:05:25;;;;;;;16.67;2.90;;;26.20;99.90;;;;;;5016185;28;20493;-71
2022/05/16 12:08:20;;;;;;;8.35;2.72;;;26.30;99.90;;;;;;5016155;28;20426;-71
2022/05/16 12:11:10;;;;;;;21.83;3.35;;;26.40;99.90;;;;;;5008579;28;20046;-71
2022/05/16 12:13:55;;;;;;;9.73;2.40;;;26.40;99.90;;;;;;5016143;28;20033;-71
2022/05/16 12:16:28;;;;;;;12.25;2.75;;;26.40;99.90;;;;;;5015990;28;20386;-71
2022/05/16 12:19:14;;;;;;;11.88;3.80;;;26.80;99.90;;;;;;5016310;28;20040;-71
2022/05/16 12:21:40;;;;;;;13.10;2.95;;;27.20;99.90;;;;;;5016252;28;20037;-71
2022/05/16 12:24:30;;;;;;;8.73;2.60;;;27.40;99.90;;;;;;5016113;28;20026;-71
2022/05/16 12:27:04;;;;;;;21.95;4.07;;;27.10;99.90;;;;;;5015866;28;20026;-71
2022/05/16 12:29:44;;;;;;;13.43;2.75;;;26.90;99.90;;;;;;5015719;28;20116;-71
2022/05/16 12:32:20;;;;;;;7.75;2.25;;;27.20;99.90;;;;;;5015701;28;20026;-71
2022/05/16 12:34:48;;;;;;;9.43;2.72;;;27.60;99.90;;;;;;5016025;28;20497;-71
2022/05/16 12:37:16;;;;;;;13.27;3.05;;;27.90;99.90;;;;;;5015820;28;20395;-71
2022/05/16 12:39:56;;;;;;;14.63;2.72;;;28.20;98.20;;;;;;5015665;28;20084;-72
2022/05/16 12:42:50;;;;;;;11.73;2.55;;;28.30;97.10;;;;;;5015855;28;20481;-71
2022/05/16 12:45:54;;;;;;;7.25;2.38;;;27.60;94.10;;;;;;5015879;28;20034;-71
2022/05/16 12:48:51;;;;;;;8.70;2.38;;;27.60;96.00;;;;;;5015952;28;20030;-72
2022/05/16 12:51:29;;;;;;;11.55;2.53;;;27.70;96.30;;;;;;5014959;28;20022;-71
2022/05/16 12:54:16;;;;;;;9.13;2.65;;;27.10;95.00;;;;;;5015705;28;20119;-72
2022/05/16 12:56:54;;;;;;;10.40;2.90;;;26.80;95.30;;;;;;5015397;28;20419;-71
2022/05/16 12:59:38;;;;;;;6.55;2.35;;;26.40;96.10;;;;;;5014174;28;20030;-71
2022/05/16 13:02:26;;;;;;;19.33;3.63;;;26.50;96.80;;;;;;5015274;28;20057;-72
2022/05/16 13:05:22;;;;;;;6.95;2.17;;;27.00;96.40;;;;;;5017146;28;20083;-72
2022/05/16 13:08:09;;;;;;;13.13;3.13;;;27.10;96.10;;;;;;5032584;28;20482;-72
2022/05/16 13:10:51;;;;;;;15.63;2.70;;;27.90;96.20;;;;;;5017262;28;20029;-72
2022/05/16 13:13:29;;;;;;;11.38;3.20;;;28.30;95.20;;;;;;5016174;28;20045;-72
2022/05/16 13:16:06;;;;;;;10.82;3.42;;;29.00;93.40;;;;;;5016192;28;20486;-72
2022/05/16 13:18:41;;;;;;;8.77;2.63;;;28.80;91.50;;;;;;5015781;28;20029;-72
2022/05/16 13:21:14;;;;;;;8.52;2.63;;;28.00;93.00;;;;;;5016406;28;20025;-72
2022/05/16 13:23:39;;;;;;;13.75;2.58;;;27.30;92.50;;;;;;5017224;28;20025;-73
2022/05/16 13:31:44;;;;;;;12.73;2.42;;;25.40;94.60;;;;;;5018368;28;20096;-73
2022/05/16 13:34:13;;;;;;;14.27;3.25;;;24.80;95.10;;;;;;5019630;28;20022;-73
2022/05/16 13:36:44;;;;;;;12.32;3.03;;;24.50;96.20;;;;;;5018401;28;20053;-73
2022/05/16 13:39:14;;;;;;;10.18;3.33;;;24.60;97.70;;;;;;5019917;28;20073;-73
2022/05/16 13:41:40;;;;;;;12.70;3.17;;;24.50;97.70;;;;;;5017754;28;20021;-73
2022/05/16 13:44:10;;;;;;;11.02;2.63;;;24.70;97.20;;;;;;5019655;28;20030;-73